Flint, MI (48507)

4:06 PM EDT on May 05, 2015 (GMT -0400)
Dave Grand Blanc | | Change Station
CLOSE
Current Station
Personal Weather Station
Location: Grand Blanc, MI
Elevation: 797 ft
Nearby Weather Stations

Elev 797 ft 42.95 °N, 83.67 °W | Updated 3 seconds ago

Light Rain
Light Rain
52.9 °F
Feels Like 52.9 °F
N
0.7
Wind Variable Wind from North
Gusts 0.9 mph

Today
High -- | Low -- °F
--% Chance of Precip.
Yesterday
High -- | Low -- °F
Precip. -- in
6:23 AM 8:40 PM
Full, 97% visible
Pressure 30.33 in
Visibility 7.0 miles
Clouds Overcast 3100 ft
Dew Point 48 °F
Humidity 82%
Rainfall 0.36 in
Snow Depth Not available.
UV 2 out of 12
Pollen 9.10 out of 12
Air Quality Not available.
Flu Activity Regional
METAR KFNT 051953Z 36003KT 7SM -RA OVC031 12/09 A3032 RMK AO2 SLP270 P0006 T01170089

More Conditions Fewer Conditions

Pressure 30.33 in
Visibility 7.0 miles
Clouds Overcast 3100 ft
Dew Point 48 °F
Humidity 82%
Rainfall 0.36 in
Snow Depth Not available.
UV 2 out of 12
Pollen 9.10 out of 12
Air Quality Not available.
Flu Activity Regional
METAR KFNT 051953Z 36003KT 7SM -RA OVC031 12/09 A3032 RMK AO2 SLP270 P0006 T01170089

More Conditions Fewer Conditions

10-Day Weather Forecast

Almanac

Astronomy

May. 05, 2015 Rise Set
Actual Time
Civil Twilight
Nautical Twilight
Astronomical Twilight
Moon
Length of Visible Light
Length of Day
Tomorrow will be .
, % of the Moon is Illuminated

Today's Extremes

State Highs State Lows

Community

WunderPhotos

Upload Photos

1,818,965 photos uploaded!

WunderBlogs® & News

Nearby

Air Quality

  Air Quality AQ Index Pollutant
Not available.

Snow Depth

Station Depth Elevation

Earthquake Activity

City Distance Mag. Time & Date
Minimum magnitude displayed is 2.5.

Coastal Water Temperatures

Place Temperature

Stations

Nearby Weather Stations

Station Location Temp. Windchill Dew Point Humidity Wind Precip. Elev Updated Type